sensor_id;sensor_type;location;lat;lon;timestamp;pressure;altitude;pressure_sealevel;temperature;humidity
5138;BME280;53959;53.626;11.410;2023-04-10T00:00:02;102064.09;;;5.38;82.02
5138;BME280;53959;53.626;11.410;2023-04-10T00:02:30;102060.38;;;5.27;82.08
5138;BME280;53959;53.626;11.410;2023-04-10T00:04:55;102063.28;;;5.42;81.97
5138;BME280;53959;53.626;11.410;2023-04-10T00:07:20;102064.03;;;5.35;81.93
5138;BME280;53959;53.626;11.410;2023-04-10T00:09:46;102056.91;;;5.29;81.89
5138;BME280;53959;53.626;11.410;2023-04-10T00:12:12;102050.00;;;5.36;81.62
5138;BME280;53959;53.626;11.410;2023-04-10T00:14:38;102056.06;;;5.32;81.71
5138;BME280;53959;53.626;11.410;2023-04-10T00:17:04;102053.28;;;5.23;82.03
5138;BME280;53959;53.626;11.410;2023-04-10T00:19:29;102048.97;;;5.28;81.53
5138;BME280;53959;53.626;11.410;2023-04-10T00:21:55;102050.78;;;5.30;81.82
5138;BME280;53959;53.626;11.410;2023-04-10T00:24:20;102048.19;;;5.32;81.43
5138;BME280;53959;53.626;11.410;2023-04-10T00:26:46;102048.19;;;5.33;81.56
5138;BME280;53959;53.626;11.410;2023-04-10T00:29:11;102043.66;;;5.25;81.54
5138;BME280;53959;53.626;11.410;2023-04-10T00:31:37;102044.59;;;5.27;81.56
5138;BME280;53959;53.626;11.410;2023-04-10T00:34:02;102042.91;;;5.30;81.86
5138;BME280;53959;53.626;11.410;2023-04-10T00:36:27;102048.97;;;5.28;81.32
5138;BME280;53959;53.626;11.410;2023-04-10T00:38:53;102050.69;;;5.26;81.16
5138;BME280;53959;53.626;11.410;2023-04-10T00:41:18;102051.72;;;5.34;81.32
5138;BME280;53959;53.626;11.410;2023-04-10T00:43:44;102048.97;;;5.28;81.02
5138;BME280;53959;53.626;11.410;2023-04-10T00:46:09;102051.69;;;5.31;81.39
5138;BME280;53959;53.626;11.410;2023-04-10T00:48:35;102048.13;;;5.29;81.11
5138;BME280;53959;53.626;11.410;2023-04-10T00:51:00;102041.88;;;5.24;81.09
5138;BME280;53959;53.626;11.410;2023-04-10T00:53:27;102043.53;;;5.19;81.41
5138;BME280;53959;53.626;11.410;2023-04-10T00:55:53;102042.72;;;5.21;81.44
5138;BME280;53959;53.626;11.410;2023-04-10T00:58:20;102048.03;;;5.24;81.49
5138;BME280;53959;53.626;11.410;2023-04-10T01:00:46;102040.81;;;5.14;81.48
5138;BME280;53959;53.626;11.410;2023-04-10T01:03:14;102046.88;;;5.10;81.61
5138;BME280;53959;53.626;11.410;2023-04-10T01:11:06;102040.75;;;5.11;81.61
5138;BME280;53959;53.626;11.410;2023-04-10T01:13:42;102041.69;;;5.15;81.38
5138;BME280;53959;53.626;11.410;2023-04-10T01:16:18;102040.69;;;5.06;81.57
5138;BME280;53959;53.626;11.410;2023-04-10T01:18:52;102033.72;;;5.10;81.61
5138;BME280;53959;53.626;11.410;2023-04-10T01:21:22;102037.31;;;5.14;81.09
5138;BME280;53959;53.626;11.410;2023-04-10T01:24:36;102039.06;;;5.15;81.37
5138;BME280;53959;53.626;11.410;2023-04-10T01:27:10;102039.13;;;5.16;80.97
5138;BME280;53959;53.626;11.410;2023-04-10T01:29:40;102037.38;;;5.17;80.98
5138;BME280;53959;53.626;11.410;2023-04-10T01:32:16;102040.88;;;5.16;80.71
5138;BME280;53959;53.626;11.410;2023-04-10T01:34:44;102033.50;;;4.99;80.96
5138;BME280;53959;53.626;11.410;2023-04-10T01:37:14;102043.09;;;4.94;81.18
5138;BME280;53959;53.626;11.410;2023-04-10T01:39:41;102023.84;;;4.98;80.82
5138;BME280;53959;53.626;11.410;2023-04-10T01:42:09;102031.81;;;5.01;80.49
5138;BME280;53959;53.626;11.410;2023-04-10T01:44:40;102035.31;;;5.00;80.93
5138;BME280;53959;53.626;11.410;2023-04-10T01:47:07;102036.00;;;4.92;81.12
5138;BME280;53959;53.626;11.410;2023-04-10T01:49:33;102034.38;;;4.97;80.87
5138;BME280;53959;53.626;11.410;2023-04-10T01:52:04;102039.47;;;4.89;80.53
5138;BME280;53959;53.626;11.410;2023-04-10T01:54:31;102048.50;;;5.03;80.53
5138;BME280;53959;53.626;11.410;2023-04-10T01:56:58;102046.66;;;4.98;80.70
5138;BME280;53959;53.626;11.410;2023-04-10T01:59:25;102043.03;;;4.91;80.90
5138;BME280;53959;53.626;11.410;2023-04-10T02:02:00;102041.19;;;4.88;80.69
5138;BME280;53959;53.626;11.410;2023-04-10T02:04:25;102027.22;;;4.93;80.11
5138;BME280;53959;53.626;11.410;2023-04-10T02:12:15;102034.09;;;4.84;80.14
5138;BME280;53959;53.626;11.410;2023-04-10T02:14:44;102034.03;;;4.80;80.02
5138;BME280;53959;53.626;11.410;2023-04-10T02:17:14;102027.88;;;4.81;80.23
5138;BME280;53959;53.626;11.410;2023-04-10T02:19:42;102022.75;;;4.85;80.23
5138;BME280;53959;53.626;11.410;2023-04-10T02:22:12;102018.28;;;4.81;79.80
5138;BME280;53959;53.626;11.410;2023-04-10T02:24:39;102026.94;;;4.77;80.14
5138;BME280;53959;53.626;11.410;2023-04-10T02:27:04;102018.22;;;4.80;80.44
5138;BME280;53959;53.626;11.410;2023-04-10T02:29:30;102018.91;;;4.70;80.45
5138;BME280;53959;53.626;11.410;2023-04-10T02:31:55;102017.13;;;4.67;80.43
5138;BME280;53959;53.626;11.410;2023-04-10T02:34:21;102015.28;;;4.65;81.01
5138;BME280;53959;53.626;11.410;2023-04-10T02:36:46;102017.00;;;4.62;80.97
5138;BME280;53959;53.626;11.410;2023-04-10T02:39:11;102000.38;;;4.65;80.63
5138;BME280;53959;53.626;11.410;2023-04-10T02:41:45;101997.66;;;4.59;80.88
5138;BME280;53959;53.626;11.410;2023-04-10T02:44:12;101996.00;;;4.66;80.75
5138;BME280;53959;53.626;11.410;2023-04-10T02:46:38;101997.53;;;4.54;80.53
5138;BME280;53959;53.626;11.410;2023-04-10T02:49:03;101999.34;;;4.55;80.68
5138;BME280;53959;53.626;11.410;2023-04-10T02:51:29;101993.13;;;4.52;80.73
5138;BME280;53959;53.626;11.410;2023-04-10T02:53:59;102000.97;;;4.50;80.23
5138;BME280;53959;53.626;11.410;2023-04-10T02:56:28;102000.00;;;4.47;80.52
5138;BME280;53959;53.626;11.410;2023-04-10T02:58:54;102004.47;;;4.49;80.64
5138;BME280;53959;53.626;11.410;2023-04-10T03:01:20;101999.94;;;4.44;80.64
5138;BME280;53959;53.626;11.410;2023-04-10T03:03:47;102000.88;;;4.44;80.45
5138;BME280;53959;53.626;11.410;2023-04-10T03:06:19;101992.16;;;4.48;79.73
5138;BME280;53959;53.626;11.410;2023-04-10T03:08:46;101994.81;;;4.48;80.00
5138;BME280;53959;53.626;11.410;2023-04-10T03:11:12;101987.66;;;4.43;79.98
5138;BME280;53959;53.626;11.410;2023-04-10T03:13:37;101990.13;;;4.35;79.37
5138;BME280;53959;53.626;11.410;2023-04-10T03:16:02;101987.56;;;4.38;79.24
5138;BME280;53959;53.626;11.410;2023-04-10T03:18:28;101984.88;;;4.35;79.21
5138;BME280;53959;53.626;11.410;2023-04-10T03:20:54;101975.28;;;4.38;79.41
5138;BME280;53959;53.626;11.410;2023-04-10T03:23:20;101973.38;;;4.31;79.53
5138;BME280;53959;53.626;11.410;2023-04-10T03:25:50;101967.16;;;4.26;79.51
5138;BME280;53959;53.626;11.410;2023-04-10T03:28:21;101965.41;;;4.25;79.40
5138;BME280;53959;53.626;11.410;2023-04-10T03:30:47;101969.81;;;4.28;79.16
5138;BME280;53959;53.626;11.410;2023-04-10T03:33:12;101968.28;;;4.37;79.36
5138;BME280;53959;53.626;11.410;2023-04-10T03:35:38;101963.66;;;4.26;79.43
5138;BME280;53959;53.626;11.410;2023-04-10T03:38:05;101963.38;;;4.13;79.94
5138;BME280;53959;53.626;11.410;2023-04-10T03:40:30;101956.66;;;4.28;79.91
5138;BME280;53959;53.626;11.410;2023-04-10T03:42:59;101962.53;;;4.14;80.28
5138;BME280;53959;53.626;11.410;2023-04-10T03:45:26;101953.00;;;4.20;80.20
5138;BME280;53959;53.626;11.410;2023-04-10T03:47:52;101953.06;;;4.23;79.89
5138;BME280;53959;53.626;11.410;2023-04-10T03:50:18;101947.47;;;4.07;79.97
5138;BME280;53959;53.626;11.410;2023-04-10T03:52:50;101937.06;;;4.13;79.82
5138;BME280;53959;53.626;11.410;2023-04-10T03:55:17;101940.63;;;4.16;79.99
5138;BME280;53959;53.626;11.410;2023-04-10T03:57:47;101945.91;;;4.16;80.10
5138;BME280;53959;53.626;11.410;2023-04-10T04:00:14;101944.22;;;4.19;80.34
5138;BME280;53959;53.626;11.410;2023-04-10T04:02:49;101943.34;;;4.20;80.04
5138;BME280;53959;53.626;11.410;2023-04-10T04:05:27;101939.94;;;4.24;80.45
5138;BME280;53959;53.626;11.410;2023-04-10T04:08:11;101938.25;;;4.28;79.78
5138;BME280;53959;53.626;11.410;2023-04-10T04:10:58;101938.97;;;4.21;79.92
5138;BME280;53959;53.626;11.410;2023-04-10T04:13:34;101933.78;;;4.24;80.49
5138;BME280;53959;53.626;11.410;2023-04-10T04:16:15;101946.06;;;4.25;80.19
5138;BME280;53959;53.626;11.410;2023-04-10T04:18:53;101944.31;;;4.24;80.39
5138;BME280;53959;53.626;11.410;2023-04-10T04:21:27;101947.94;;;4.29;80.45
5138;BME280;53959;53.626;11.410;2023-04-10T04:24:01;101931.34;;;4.33;80.71
5138;BME280;53959;53.626;11.410;2023-04-10T04:26:48;101936.56;;;4.30;80.12
5138;BME280;53959;53.626;11.410;2023-04-10T04:29:32;101932.16;;;4.29;80.44
5138;BME280;53959;53.626;11.410;2023-04-10T04:32:14;101928.00;;;4.40;80.10
5138;BME280;53959;53.626;11.410;2023-04-10T04:34:55;101929.03;;;4.48;80.29
5138;BME280;53959;53.626;11.410;2023-04-10T04:37:43;101929.75;;;4.41;80.03
5138;BME280;53959;53.626;11.410;2023-04-10T04:40:37;101941.47;;;4.57;79.95
5138;BME280;53959;53.626;11.410;2023-04-10T04:43:18;101932.69;;;4.56;80.55
5138;BME280;53959;53.626;11.410;2023-04-10T04:46:03;101931.94;;;4.63;80.67
5138;BME280;53959;53.626;11.410;2023-04-10T04:48:47;101932.03;;;4.70;80.46
5138;BME280;53959;53.626;11.410;2023-04-10T04:51:31;101925.94;;;4.71;80.67
5138;BME280;53959;53.626;11.410;2023-04-10T04:54:07;101931.22;;;4.72;80.36
5138;BME280;53959;53.626;11.410;2023-04-10T04:57:05;101929.38;;;4.67;80.80
5138;BME280;53959;53.626;11.410;2023-04-10T05:00:00;101934.94;;;4.85;80.80
5138;BME280;53959;53.626;11.410;2023-04-10T05:02:44;101920.94;;;4.86;81.08
5138;BME280;53959;53.626;11.410;2023-04-10T05:05:30;101924.31;;;4.79;81.11
5138;BME280;53959;53.626;11.410;2023-04-10T05:08:22;101929.66;;;4.82;81.27
5138;BME280;53959;53.626;11.410;2023-04-10T05:10:56;101927.97;;;4.87;81.00
5138;BME280;53959;53.626;11.410;2023-04-10T05:13:47;101925.41;;;4.90;81.11
5138;BME280;53959;53.626;11.410;2023-04-10T05:16:21;101923.66;;;4.92;80.65
5138;BME280;53959;53.626;11.410;2023-04-10T05:18:58;101935.88;;;4.85;81.14
5138;BME280;53959;53.626;11.410;2023-04-10T05:21:42;101932.44;;;4.93;80.70
5138;BME280;53959;53.626;11.410;2023-04-10T05:24:42;101926.31;;;4.92;81.06
5138;BME280;53959;53.626;11.410;2023-04-10T05:27:13;101934.31;;;4.97;81.04
5138;BME280;53959;53.626;11.410;2023-04-10T05:29:57;101939.53;;;4.95;80.93
5138;BME280;53959;53.626;11.410;2023-04-10T05:32:37;101945.63;;;4.93;81.07
5138;BME280;53959;53.626;11.410;2023-04-10T05:35:19;101944.84;;;4.97;81.02
5138;BME280;53959;53.626;11.410;2023-04-10T05:38:09;101944.78;;;4.95;81.45
5138;BME280;53959;53.626;11.410;2023-04-10T05:40:34;101944.91;;;5.01;81.50
5138;BME280;53959;53.626;11.410;2023-04-10T05:43:23;101939.84;;;5.12;81.32
5138;BME280;53959;53.626;11.410;2023-04-10T05:45:58;101949.63;;;5.19;81.03
5138;BME280;53959;53.626;11.410;2023-04-10T05:48:38;101946.25;;;5.28;80.98
5138;BME280;53959;53.626;11.410;2023-04-10T05:51:24;101948.00;;;5.29;80.75
5138;BME280;53959;53.626;11.410;2023-04-10T05:54:12;101944.59;;;5.36;80.69
5138;BME280;53959;53.626;11.410;2023-04-10T05:57:07;101954.44;;;5.48;80.68
5138;BME280;53959;53.626;11.410;2023-04-10T05:59:59;101942.28;;;5.56;80.92
5138;BME280;53959;53.626;11.410;2023-04-10T06:02:45;101946.81;;;5.65;80.61
5138;BME280;53959;53.626;11.410;2023-04-10T06:05:19;101942.69;;;5.83;80.19
5138;BME280;53959;53.626;11.410;2023-04-10T06:07:44;101936.66;;;5.91;80.64
5138;BME280;53959;53.626;11.410;2023-04-10T06:10:10;101921.84;;;6.00;80.67
5138;BME280;53959;53.626;11.410;2023-04-10T06:12:35;101933.38;;;6.08;80.34
5138;BME280;53959;53.626;11.410;2023-04-10T06:15:02;101929.13;;;6.18;80.00
5138;BME280;53959;53.626;11.410;2023-04-10T06:17:32;101929.06;;;6.14;80.08
5138;BME280;53959;53.626;11.410;2023-04-10T06:19:57;101926.53;;;6.23;79.59
5138;BME280;53959;53.626;11.410;2023-04-10T06:22:25;101928.28;;;6.24;79.57
5138;BME280;53959;53.626;11.410;2023-04-10T06:24:50;101919.53;;;6.26;79.09
5138;BME280;53959;53.626;11.410;2023-04-10T06:27:16;101916.91;;;6.28;79.01
5138;BME280;53959;53.626;11.410;2023-04-10T06:29:42;101914.38;;;6.37;78.90
5138;BME280;53959;53.626;11.410;2023-04-10T06:32:08;101917.13;;;6.46;78.21
5138;BME280;53959;53.626;11.410;2023-04-10T06:34:36;101913.59;;;6.46;78.12
5138;BME280;53959;53.626;11.410;2023-04-10T06:37:04;101910.16;;;6.51;78.04
5138;BME280;53959;53.626;11.410;2023-04-10T06:39:30;101906.53;;;6.42;77.93
5138;BME280;53959;53.626;11.410;2023-04-10T06:41:56;101909.28;;;6.52;77.93
5138;BME280;53959;53.626;11.410;2023-04-10T06:44:40;101911.97;;;6.57;77.82
5138;BME280;53959;53.626;11.410;2023-04-10T06:47:05;101899.72;;;6.65;77.38
5138;BME280;53959;53.626;11.410;2023-04-10T06:49:33;101908.69;;;6.84;77.53
5138;BME280;53959;53.626;11.410;2023-04-10T06:51:58;101897.28;;;6.85;77.54
5138;BME280;53959;53.626;11.410;2023-04-10T06:54:23;101904.41;;;6.95;77.20
5138;BME280;53959;53.626;11.410;2023-04-10T06:56:49;101899.19;;;7.01;77.01
5138;BME280;53959;53.626;11.410;2023-04-10T06:59:14;101901.06;;;7.18;76.67
5138;BME280;53959;53.626;11.410;2023-04-10T07:01:39;101896.75;;;7.27;76.41
5138;BME280;53959;53.626;11.410;2023-04-10T07:04:05;101901.22;;;7.35;76.29
5138;BME280;53959;53.626;11.410;2023-04-10T07:06:30;101901.41;;;7.61;75.69
5138;BME280;53959;53.626;11.410;2023-04-10T07:08:55;101897.00;;;7.66;75.04
5138;BME280;53959;53.626;11.410;2023-04-10T07:11:21;101901.50;;;7.82;74.54
5138;BME280;53959;53.626;11.410;2023-04-10T07:13:46;101891.03;;;7.97;73.92
5138;BME280;53959;53.626;11.410;2023-04-10T07:16:11;101891.91;;;8.04;74.29
5138;BME280;53959;53.626;11.410;2023-04-10T07:18:37;101886.69;;;8.16;73.72
5138;BME280;53959;53.626;11.410;2023-04-10T07:21:10;101887.59;;;8.31;73.00
5138;BME280;53959;53.626;11.410;2023-04-10T07:23:36;101889.41;;;8.42;72.40
5138;BME280;53959;53.626;11.410;2023-04-10T07:26:02;101879.72;;;8.44;72.02
5138;BME280;53959;53.626;11.410;2023-04-10T07:28:27;101878.00;;;8.75;71.14
5138;BME280;53959;53.626;11.410;2023-04-10T07:30:52;101878.00;;;8.91;71.37
5138;BME280;53959;53.626;11.410;2023-04-10T07:33:18;101870.09;;;9.03;70.55
5138;BME280;53959;53.626;11.410;2023-04-10T07:35:43;101869.19;;;9.12;69.45
5138;BME280;53959;53.626;11.410;2023-04-10T07:38:10;101868.28;;;9.17;68.84
5138;BME280;53959;53.626;11.410;2023-04-10T07:40:36;101860.34;;;9.40;68.22
5138;BME280;53959;53.626;11.410;2023-04-10T07:43:01;101858.44;;;9.79;67.60
5138;BME280;53959;53.626;11.410;2023-04-10T07:45:26;101859.41;;;9.63;66.93
5138;BME280;53959;53.626;11.410;2023-04-10T07:47:52;101862.78;;;10.02;66.36
5138;BME280;53959;53.626;11.410;2023-04-10T07:50:18;101853.94;;;9.96;66.34
5138;BME280;53959;53.626;11.410;2023-04-10T07:52:43;101855.50;;;10.43;65.83
5138;BME280;53959;53.626;11.410;2023-04-10T07:55:08;101853.19;;;11.13;63.29
5138;BME280;53959;53.626;11.410;2023-04-10T07:57:34;101859.50;;;12.55;59.56
5138;BME280;53959;53.626;11.410;2023-04-10T08:00:00;101859.09;;;12.83;58.50
5138;BME280;53959;53.626;11.410;2023-04-10T08:02:25;101861.66;;;13.42;56.09
5138;BME280;53959;53.626;11.410;2023-04-10T08:04:51;101854.69;;;13.81;54.92
5138;BME280;53959;53.626;11.410;2023-04-10T08:07:19;101863.16;;;14.42;53.62
5138;BME280;53959;53.626;11.410;2023-04-10T08:09:45;101853.81;;;13.80;54.51
5138;BME280;53959;53.626;11.410;2023-04-10T08:12:10;101856.16;;;13.49;55.44
5138;BME280;53959;53.626;11.410;2023-04-10T08:14:35;101861.56;;;13.93;54.16
5138;BME280;53959;53.626;11.410;2023-04-10T08:17:01;101850.41;;;14.14;53.89
5138;BME280;53959;53.626;11.410;2023-04-10T08:19:26;101847.81;;;14.09;54.18
5138;BME280;53959;53.626;11.410;2023-04-10T08:21:51;101845.81;;;14.61;53.22
5138;BME280;53959;53.626;11.410;2023-04-10T08:24:16;101839.09;;;14.03;53.79
5138;BME280;53959;53.626;11.410;2023-04-10T08:26:44;101839.16;;;14.39;53.76
5138;BME280;53959;53.626;11.410;2023-04-10T08:29:09;101838.09;;;14.07;54.17
5138;BME280;53959;53.626;11.410;2023-04-10T08:31:34;101837.47;;;14.73;52.77
5138;BME280;53959;53.626;11.410;2023-04-10T08:34:00;101834.41;;;15.24;51.68
5138;BME280;53959;53.626;11.410;2023-04-10T08:36:26;101838.00;;;15.56;50.39
5138;BME280;53959;53.626;11.410;2023-04-10T08:38:52;101828.22;;;16.45;48.68
5138;BME280;53959;53.626;11.410;2023-04-10T08:41:18;101833.28;;;17.09;47.28
5138;BME280;53959;53.626;11.410;2023-04-10T08:43:43;101824.19;;;16.60;48.81
5138;BME280;53959;53.626;11.410;2023-04-10T08:46:10;101834.75;;;15.12;51.12
5138;BME280;53959;53.626;11.410;2023-04-10T08:48:45;101828.13;;;15.58;49.83
5138;BME280;53959;53.626;11.410;2023-04-10T08:51:16;101825.53;;;16.17;49.19
5138;BME280;53959;53.626;11.410;2023-04-10T08:53:43;101815.84;;;15.84;49.91
5138;BME280;53959;53.626;11.410;2023-04-10T08:56:12;101830.28;;;17.18;47.25
5138;BME280;53959;53.626;11.410;2023-04-10T08:58:41;101817.63;;;17.72;45.95
5138;BME280;53959;53.626;11.410;2023-04-10T09:01:07;101816.88;;;17.68;45.98
5138;BME280;53959;53.626;11.410;2023-04-10T09:03:33;101804.84;;;18.69;43.33
5138;BME280;53959;53.626;11.410;2023-04-10T09:06:02;101807.78;;;17.47;45.17
5138;BME280;53959;53.626;11.410;2023-04-10T09:08:28;101801.56;;;18.61;43.17
5138;BME280;53959;53.626;11.410;2023-04-10T09:10:54;101796.69;;;18.49;42.32
5138;BME280;53959;53.626;11.410;2023-04-10T09:13:39;101793.13;;;16.53;46.52
5138;BME280;53959;53.626;11.410;2023-04-10T09:16:06;101786.25;;;15.23;48.22
5138;BME280;53959;53.626;11.410;2023-04-10T09:18:52;101784.56;;;14.52;50.62
5138;BME280;53959;53.626;11.410;2023-04-10T09:21:19;101782.00;;;14.07;52.11
5138;BME280;53959;53.626;11.410;2023-04-10T09:23:45;101781.69;;;13.80;51.87
5138;BME280;53959;53.626;11.410;2023-04-10T09:26:29;101770.53;;;14.02;52.28
5138;BME280;53959;53.626;11.410;2023-04-10T09:28:59;101766.41;;;13.87;53.22
5138;BME280;53959;53.626;11.410;2023-04-10T09:31:33;101767.69;;;13.69;53.46
5138;BME280;53959;53.626;11.410;2023-04-10T09:34:19;101754.31;;;13.71;53.77
5138;BME280;53959;53.626;11.410;2023-04-10T09:36:58;101753.91;;;13.89;53.34
5138;BME280;53959;53.626;11.410;2023-04-10T09:39:37;101752.47;;;14.13;53.10
5138;BME280;53959;53.626;11.410;2023-04-10T09:42:07;101746.94;;;13.82;51.68
5138;BME280;53959;53.626;11.410;2023-04-10T09:44:35;101742.47;;;13.82;51.52
5138;BME280;53959;53.626;11.410;2023-04-10T09:49:51;101738.28;;;14.11;51.45
5138;BME280;53959;53.626;11.410;2023-04-10T09:52:17;101729.22;;;14.17;51.98
5138;BME280;53959;53.626;11.410;2023-04-10T09:54:43;101722.31;;;14.08;51.59
5138;BME280;53959;53.626;11.410;2023-04-10T09:57:12;101721.25;;;14.15;52.36
5138;BME280;53959;53.626;11.410;2023-04-10T09:59:40;101708.50;;;14.26;52.02
5138;BME280;53959;53.626;11.410;2023-04-10T10:02:10;101708.06;;;14.43;51.64
5138;BME280;53959;53.626;11.410;2023-04-10T10:04:38;101709.56;;;14.56;50.29
5138;BME280;53959;53.626;11.410;2023-04-10T10:07:04;101703.91;;;14.69;50.16
5138;BME280;53959;53.626;11.410;2023-04-10T10:09:30;101703.44;;;14.51;50.36
5138;BME280;53959;53.626;11.410;2023-04-10T10:11:56;101702.09;;;14.69;49.99
5138;BME280;53959;53.626;11.410;2023-04-10T10:14:24;101693.66;;;14.52;47.65
5138;BME280;53959;53.626;11.410;2023-04-10T10:16:55;101695.22;;;14.59;47.18
5138;BME280;53959;53.626;11.410;2023-04-10T10:19:26;101686.88;;;14.37;47.53
5138;BME280;53959;53.626;11.410;2023-04-10T10:21:53;101678.59;;;14.46;47.22
5138;BME280;53959;53.626;11.410;2023-04-10T10:24:19;101668.22;;;14.70;46.66
5138;BME280;53959;53.626;11.410;2023-04-10T10:26:49;101679.84;;;14.69;46.94
5138;BME280;53959;53.626;11.410;2023-04-10T10:29:15;101680.72;;;14.69;45.67
5138;BME280;53959;53.626;11.410;2023-04-10T10:31:43;101673.19;;;14.84;45.36
5138;BME280;53959;53.626;11.410;2023-04-10T10:34:10;101672.75;;;14.66;45.74
5138;BME280;53959;53.626;11.410;2023-04-10T10:36:36;101660.41;;;14.95;45.81
5138;BME280;53959;53.626;11.410;2023-04-10T10:39:23;101658.50;;;14.98;45.37
5138;BME280;53959;53.626;11.410;2023-04-10T10:47:14;101642.91;;;14.83;44.30
5138;BME280;53959;53.626;11.410;2023-04-10T10:50:00;101630.41;;;14.84;43.71
5138;BME280;53959;53.626;11.410;2023-04-10T10:52:43;101621.00;;;15.00;42.98
5138;BME280;53959;53.626;11.410;2023-04-10T10:55:27;101612.06;;;15.30;42.55
5138;BME280;53959;53.626;11.410;2023-04-10T10:57:54;101604.19;;;15.26;41.62
5138;BME280;53959;53.626;11.410;2023-04-10T11:00:21;101606.22;;;15.18;42.40
5138;BME280;53959;53.626;11.410;2023-04-10T11:11:06;101567.47;;;15.31;42.62
5138;BME280;53959;53.626;11.410;2023-04-10T11:16:23;101567.50;;;15.58;43.17
5138;BME280;53959;53.626;11.410;2023-04-10T11:21:19;101547.97;;;15.82;42.36
5138;BME280;53959;53.626;11.410;2023-04-10T11:29:50;101532.53;;;15.62;42.77
5138;BME280;53959;53.626;11.410;2023-04-10T11:32:01;101533.75;;;15.52;42.33
5138;BME280;53959;53.626;11.410;2023-04-10T11:34:27;101526.28;;;15.90;42.55
5138;BME280;53959;53.626;11.410;2023-04-10T11:36:55;101527.16;;;15.90;41.75
5138;BME280;53959;53.626;11.410;2023-04-10T11:39:21;101510.44;;;15.84;41.66
5138;BME280;53959;53.626;11.410;2023-04-10T11:41:48;101505.97;;;15.84;41.13
5138;BME280;53959;53.626;11.410;2023-04-10T11:44:16;101506.84;;;15.83;41.60
5138;BME280;53959;53.626;11.410;2023-04-10T11:46:44;101503.56;;;15.75;41.02
5138;BME280;53959;53.626;11.410;2023-04-10T11:49:20;101504.31;;;15.80;41.15
5138;BME280;53959;53.626;11.410;2023-04-10T11:51:47;101508.78;;;16.06;41.52
5138;BME280;53959;53.626;11.410;2023-04-10T11:54:16;101501.53;;;16.08;40.53
5138;BME280;53959;53.626;11.410;2023-04-10T11:56:43;101497.72;;;16.15;40.09
5138;BME280;53959;53.626;11.410;2023-04-10T11:59:09;101494.56;;;16.27;39.85
5138;BME280;53959;53.626;11.410;2023-04-10T12:01:40;101497.44;;;16.48;39.22
5138;BME280;53959;53.626;11.410;2023-04-10T12:04:15;101494.66;;;16.49;39.36
5138;BME280;53959;53.626;11.410;2023-04-10T12:06:50;101480.97;;;16.34;39.64
5138;BME280;53959;53.626;11.410;2023-04-10T12:09:19;101469.97;;;16.41;39.76
5138;BME280;53959;53.626;11.410;2023-04-10T12:11:56;101470.78;;;16.67;39.67
5138;BME280;53959;53.626;11.410;2023-04-10T12:14:29;101476.13;;;16.43;39.79
5138;BME280;53959;53.626;11.410;2023-04-10T12:16:55;101471.66;;;16.67;40.05
5138;BME280;53959;53.626;11.410;2023-04-10T12:19:21;101467.56;;;16.57;39.17
5138;BME280;53959;53.626;11.410;2023-04-10T12:21:47;101460.75;;;16.72;39.26
5138;BME280;53959;53.626;11.410;2023-04-10T12:24:39;101453.50;;;16.75;39.63
5138;BME280;53959;53.626;11.410;2023-04-10T12:27:05;101448.69;;;16.84;39.16
5138;BME280;53959;53.626;11.410;2023-04-10T12:29:30;101438.94;;;16.81;39.09
5138;BME280;53959;53.626;11.410;2023-04-10T12:31:56;101438.06;;;16.57;38.79
5138;BME280;53959;53.626;11.410;2023-04-10T12:34:21;101432.94;;;16.51;38.69
5138;BME280;53959;53.626;11.410;2023-04-10T12:36:51;101427.44;;;16.54;39.15
5138;BME280;53959;53.626;11.410;2023-04-10T12:39:21;101431.47;;;16.66;39.00
5138;BME280;53959;53.626;11.410;2023-04-10T12:41:47;101423.84;;;16.79;38.67
5138;BME280;53959;53.626;11.410;2023-04-10T12:44:13;101422.41;;;16.70;39.29
5138;BME280;53959;53.626;11.410;2023-04-10T12:46:39;101420.06;;;17.06;39.08
5138;BME280;53959;53.626;11.410;2023-04-10T12:49:15;101411.75;;;17.34;38.49
5138;BME280;53959;53.626;11.410;2023-04-10T12:51:50;101418.31;;;17.05;38.62
5138;BME280;53959;53.626;11.410;2023-04-10T12:54:30;101406.19;;;17.39;38.41
5138;BME280;53959;53.626;11.410;2023-04-10T12:56:56;101397.22;;;17.81;38.01
5138;BME280;53959;53.626;11.410;2023-04-10T12:59:22;101403.25;;;18.06;36.80
5138;BME280;53959;53.626;11.410;2023-04-10T13:01:48;101397.78;;;18.66;36.22
5138;BME280;53959;53.626;11.410;2023-04-10T13:04:13;101391.69;;;19.17;35.92
5138;BME280;53959;53.626;11.410;2023-04-10T13:06:43;101384.78;;;18.76;35.77
5138;BME280;53959;53.626;11.410;2023-04-10T13:09:09;101379.50;;;18.91;35.64
5138;BME280;53959;53.626;11.410;2023-04-10T13:11:34;101370.53;;;19.10;35.43
5138;BME280;53959;53.626;11.410;2023-04-10T13:14:00;101372.44;;;18.72;36.24
5138;BME280;53959;53.626;11.410;2023-04-10T13:16:25;101362.47;;;18.55;36.64
5138;BME280;53959;53.626;11.410;2023-04-10T13:18:50;101341.81;;;17.78;38.31
5138;BME280;53959;53.626;11.410;2023-04-10T13:21:16;101351.13;;;17.69;38.82
5138;BME280;53959;53.626;11.410;2023-04-10T13:23:46;101340.50;;;17.66;39.23
5138;BME280;53959;53.626;11.410;2023-04-10T13:26:12;101339.47;;;17.50;39.59
5138;BME280;53959;53.626;11.410;2023-04-10T13:28:37;101330.84;;;17.62;39.87
5138;BME280;53959;53.626;11.410;2023-04-10T13:31:02;101334.69;;;17.57;39.46
5138;BME280;53959;53.626;11.410;2023-04-10T13:33:28;101306.94;;;17.56;39.56
5138;BME280;53959;53.626;11.410;2023-04-10T13:35:53;101310.34;;;17.60;39.93
5138;BME280;53959;53.626;11.410;2023-04-10T13:38:18;101304.06;;;17.61;39.96
5138;BME280;53959;53.626;11.410;2023-04-10T13:40:44;101302.59;;;17.33;40.28
5138;BME280;53959;53.626;11.410;2023-04-10T13:43:09;101300.25;;;17.46;40.04
5138;BME280;53959;53.626;11.410;2023-04-10T13:45:35;101296.19;;;17.56;39.26
5138;BME280;53959;53.626;11.410;2023-04-10T13:48:00;101305.50;;;17.49;39.64